sensor_id;sensor_type;location;lat;lon;timestamp;P1;durP1;ratioP1;P2;durP2;ratioP2
46765;SDS011;32527;51.986;5.842;2022-12-29T00:01:24;5.53;;;3.55;;
46765;SDS011;32527;51.986;5.842;2022-12-29T00:03:50;5.80;;;3.85;;
46765;SDS011;32527;51.986;5.842;2022-12-29T00:06:16;6.75;;;3.85;;
46765;SDS011;32527;51.986;5.842;2022-12-29T00:08:42;5.93;;;3.65;;
46765;SDS011;32527;51.986;5.842;2022-12-29T00:11:12;9.10;;;3.95;;
46765;SDS011;32527;51.986;5.842;2022-12-29T00:13:40;5.70;;;3.80;;
46765;SDS011;32527;51.986;5.842;2022-12-29T00:16:25;8.10;;;3.92;;
46765;SDS011;32527;51.986;5.842;2022-12-29T00:18:52;6.97;;;4.00;;
46765;SDS011;32527;51.986;5.842;2022-12-29T00:21:18;5.57;;;3.58;;
46765;SDS011;32527;51.986;5.842;2022-12-29T00:24:04;6.70;;;4.20;;
46765;SDS011;32527;51.986;5.842;2022-12-29T00:26:56;12.60;;;3.90;;
46765;SDS011;32527;51.986;5.842;2022-12-29T00:29:52;5.68;;;3.92;;
46765;SDS011;32527;51.986;5.842;2022-12-29T00:32:37;6.38;;;3.35;;
46765;SDS011;32527;51.986;5.842;2022-12-29T00:35:26;7.13;;;3.55;;
46765;SDS011;32527;51.986;5.842;2022-12-29T00:37:54;8.38;;;3.85;;
46765;SDS011;32527;51.986;5.842;2022-12-29T00:40:40;4.72;;;3.22;;
46765;SDS011;32527;51.986;5.842;2022-12-29T00:43:25;6.07;;;3.40;;
46765;SDS011;32527;51.986;5.842;2022-12-29T00:46:10;5.03;;;3.60;;
46765;SDS011;32527;51.986;5.842;2022-12-29T00:48:36;6.78;;;3.47;;
46765;SDS011;32527;51.986;5.842;2022-12-29T00:51:21;6.00;;;3.25;;
46765;SDS011;32527;51.986;5.842;2022-12-29T00:53:47;7.85;;;3.78;;
46765;SDS011;32527;51.986;5.842;2022-12-29T00:56:13;4.70;;;3.55;;
46765;SDS011;32527;51.986;5.842;2022-12-29T00:58:39;5.68;;;3.40;;
46765;SDS011;32527;51.986;5.842;2022-12-29T01:01:07;8.40;;;3.58;;
46765;SDS011;32527;51.986;5.842;2022-12-29T01:03:34;5.30;;;3.53;;
46765;SDS011;32527;51.986;5.842;2022-12-29T01:06:01;6.22;;;3.63;;
46765;SDS011;32527;51.986;5.842;2022-12-29T01:08:32;6.15;;;3.38;;
46765;SDS011;32527;51.986;5.842;2022-12-29T01:10:59;4.32;;;3.10;;
46765;SDS011;32527;51.986;5.842;2022-12-29T01:13:26;6.45;;;2.92;;
46765;SDS011;32527;51.986;5.842;2022-12-29T01:15:53;7.88;;;3.42;;
46765;SDS011;32527;51.986;5.842;2022-12-29T01:18:19;4.57;;;2.95;;
46765;SDS011;32527;51.986;5.842;2022-12-29T01:20:45;5.78;;;2.60;;
46765;SDS011;32527;51.986;5.842;2022-12-29T01:23:11;4.25;;;2.63;;
46765;SDS011;32527;51.986;5.842;2022-12-29T01:25:37;2.97;;;2.10;;
46765;SDS011;32527;51.986;5.842;2022-12-29T01:28:04;2.45;;;2.10;;
46765;SDS011;32527;51.986;5.842;2022-12-29T01:30:29;4.45;;;2.53;;
46765;SDS011;32527;51.986;5.842;2022-12-29T01:32:56;3.67;;;1.92;;
46765;SDS011;32527;51.986;5.842;2022-12-29T01:35:22;15.02;;;3.50;;
46765;SDS011;32527;51.986;5.842;2022-12-29T01:37:48;4.57;;;2.10;;
46765;SDS011;32527;51.986;5.842;2022-12-29T01:40:14;4.03;;;3.25;;
46765;SDS011;32527;51.986;5.842;2022-12-29T01:42:40;5.10;;;2.00;;
46765;SDS011;32527;51.986;5.842;2022-12-29T01:45:13;3.50;;;1.95;;
46765;SDS011;32527;51.986;5.842;2022-12-29T01:50:28;3.60;;;2.15;;
46765;SDS011;32527;51.986;5.842;2022-12-29T01:53:01;4.57;;;2.55;;
46765;SDS011;32527;51.986;5.842;2022-12-29T01:55:35;2.95;;;2.05;;
46765;SDS011;32527;51.986;5.842;2022-12-29T01:58:09;5.50;;;2.00;;
46765;SDS011;32527;51.986;5.842;2022-12-29T02:00:37;4.38;;;2.40;;
46765;SDS011;32527;51.986;5.842;2022-12-29T02:03:03;3.30;;;2.50;;
46765;SDS011;32527;51.986;5.842;2022-12-29T02:05:44;3.70;;;2.25;;
46765;SDS011;32527;51.986;5.842;2022-12-29T02:08:13;3.65;;;2.50;;
46765;SDS011;32527;51.986;5.842;2022-12-29T02:10:39;3.70;;;2.33;;
46765;SDS011;32527;51.986;5.842;2022-12-29T02:13:06;4.22;;;2.40;;
46765;SDS011;32527;51.986;5.842;2022-12-29T02:23:49;3.70;;;2.50;;
46765;SDS011;32527;51.986;5.842;2022-12-29T02:26:52;5.65;;;2.50;;
46765;SDS011;32527;51.986;5.842;2022-12-29T02:41:39;7.05;;;2.45;;
46765;SDS011;32527;51.986;5.842;2022-12-29T02:47:02;8.63;;;3.60;;
46765;SDS011;32527;51.986;5.842;2022-12-29T02:49:45;3.10;;;2.10;;
46765;SDS011;32527;51.986;5.842;2022-12-29T02:52:27;5.32;;;1.92;;
46765;SDS011;32527;51.986;5.842;2022-12-29T02:54:57;6.20;;;2.15;;
46765;SDS011;32527;51.986;5.842;2022-12-29T02:59:58;5.47;;;2.38;;
46765;SDS011;32527;51.986;5.842;2022-12-29T03:11:15;6.80;;;2.40;;
46765;SDS011;32527;51.986;5.842;2022-12-29T03:14:13;5.68;;;2.47;;
46765;SDS011;32527;51.986;5.842;2022-12-29T03:17:19;8.43;;;2.67;;
46765;SDS011;32527;51.986;5.842;2022-12-29T03:19:51;8.05;;;2.60;;
46765;SDS011;32527;51.986;5.842;2022-12-29T03:22:22;6.40;;;2.15;;
46765;SDS011;32527;51.986;5.842;2022-12-29T03:24:58;3.40;;;1.50;;
46765;SDS011;32527;51.986;5.842;2022-12-29T03:27:45;5.53;;;1.92;;
46765;SDS011;32527;51.986;5.842;2022-12-29T03:30:15;7.30;;;2.60;;
46765;SDS011;32527;51.986;5.842;2022-12-29T03:32:49;7.40;;;2.47;;
46765;SDS011;32527;51.986;5.842;2022-12-29T03:35:22;9.65;;;2.72;;
46765;SDS011;32527;51.986;5.842;2022-12-29T03:37:58;3.58;;;2.15;;
46765;SDS011;32527;51.986;5.842;2022-12-29T03:40:28;3.30;;;1.95;;
46765;SDS011;32527;51.986;5.842;2022-12-29T03:42:56;6.88;;;2.55;;
46765;SDS011;32527;51.986;5.842;2022-12-29T03:45:23;3.88;;;2.10;;
46765;SDS011;32527;51.986;5.842;2022-12-29T03:47:49;9.15;;;1.90;;
46765;SDS011;32527;51.986;5.842;2022-12-29T03:50:17;3.88;;;1.83;;
46765;SDS011;32527;51.986;5.842;2022-12-29T03:52:43;2.38;;;1.90;;
46765;SDS011;32527;51.986;5.842;2022-12-29T03:55:09;5.30;;;1.88;;
46765;SDS011;32527;51.986;5.842;2022-12-29T03:57:37;5.03;;;1.70;;
46765;SDS011;32527;51.986;5.842;2022-12-29T04:00:06;11.43;;;2.05;;
46765;SDS011;32527;51.986;5.842;2022-12-29T04:02:40;9.88;;;2.10;;
46765;SDS011;32527;51.986;5.842;2022-12-29T04:05:08;5.65;;;2.28;;
46765;SDS011;32527;51.986;5.842;2022-12-29T04:07:33;3.45;;;2.00;;
46765;SDS011;32527;51.986;5.842;2022-12-29T04:10:02;5.97;;;2.30;;
46765;SDS011;32527;51.986;5.842;2022-12-29T04:12:30;6.72;;;2.47;;
46765;SDS011;32527;51.986;5.842;2022-12-29T04:14:57;3.22;;;1.70;;
46765;SDS011;32527;51.986;5.842;2022-12-29T04:17:23;3.92;;;1.90;;
46765;SDS011;32527;51.986;5.842;2022-12-29T04:19:51;3.63;;;1.80;;
46765;SDS011;32527;51.986;5.842;2022-12-29T04:22:37;4.20;;;2.10;;
46765;SDS011;32527;51.986;5.842;2022-12-29T04:25:03;7.00;;;1.95;;
46765;SDS011;32527;51.986;5.842;2022-12-29T04:27:29;8.88;;;2.38;;
46765;SDS011;32527;51.986;5.842;2022-12-29T04:30:33;2.83;;;1.58;;
46765;SDS011;32527;51.986;5.842;2022-12-29T04:33:04;7.80;;;2.42;;
46765;SDS011;32527;51.986;5.842;2022-12-29T04:35:31;5.85;;;2.00;;
46765;SDS011;32527;51.986;5.842;2022-12-29T04:37:58;7.15;;;2.08;;
46765;SDS011;32527;51.986;5.842;2022-12-29T04:40:24;4.13;;;1.92;;
46765;SDS011;32527;51.986;5.842;2022-12-29T04:42:50;6.63;;;1.83;;
46765;SDS011;32527;51.986;5.842;2022-12-29T04:45:17;10.25;;;3.13;;
46765;SDS011;32527;51.986;5.842;2022-12-29T04:47:58;6.78;;;2.22;;
46765;SDS011;32527;51.986;5.842;2022-12-29T04:50:51;9.45;;;2.15;;
46765;SDS011;32527;51.986;5.842;2022-12-29T04:53:21;4.35;;;1.85;;
46765;SDS011;32527;51.986;5.842;2022-12-29T04:55:51;7.32;;;1.70;;
46765;SDS011;32527;51.986;5.842;2022-12-29T04:58:17;4.95;;;1.95;;
46765;SDS011;32527;51.986;5.842;2022-12-29T05:00:46;4.80;;;1.90;;
46765;SDS011;32527;51.986;5.842;2022-12-29T05:03:12;5.80;;;1.80;;
46765;SDS011;32527;51.986;5.842;2022-12-29T05:05:40;5.65;;;1.90;;
46765;SDS011;32527;51.986;5.842;2022-12-29T05:08:06;9.18;;;2.28;;
46765;SDS011;32527;51.986;5.842;2022-12-29T05:10:34;7.18;;;2.28;;
46765;SDS011;32527;51.986;5.842;2022-12-29T05:13:06;8.32;;;1.55;;
46765;SDS011;32527;51.986;5.842;2022-12-29T05:15:33;7.57;;;1.80;;
46765;SDS011;32527;51.986;5.842;2022-12-29T05:17:59;11.02;;;1.88;;
46765;SDS011;32527;51.986;5.842;2022-12-29T05:20:25;11.40;;;1.90;;
46765;SDS011;32527;51.986;5.842;2022-12-29T05:22:51;8.50;;;1.70;;
46765;SDS011;32527;51.986;5.842;2022-12-29T05:25:18;10.63;;;2.10;;
46765;SDS011;32527;51.986;5.842;2022-12-29T05:27:54;6.72;;;1.98;;
46765;SDS011;32527;51.986;5.842;2022-12-29T05:30:42;10.98;;;1.95;;
46765;SDS011;32527;51.986;5.842;2022-12-29T05:33:08;5.15;;;1.60;;
46765;SDS011;32527;51.986;5.842;2022-12-29T05:35:36;5.55;;;1.80;;
46765;SDS011;32527;51.986;5.842;2022-12-29T05:38:02;8.70;;;1.88;;
46765;SDS011;32527;51.986;5.842;2022-12-29T05:40:29;5.00;;;1.95;;
46765;SDS011;32527;51.986;5.842;2022-12-29T05:42:59;6.68;;;2.03;;
46765;SDS011;32527;51.986;5.842;2022-12-29T05:45:37;6.72;;;2.58;;
46765;SDS011;32527;51.986;5.842;2022-12-29T05:48:22;12.27;;;2.30;;
46765;SDS011;32527;51.986;5.842;2022-12-29T05:53:39;4.43;;;2.47;;
46765;SDS011;32527;51.986;5.842;2022-12-29T05:56:05;7.80;;;2.30;;
46765;SDS011;32527;51.986;5.842;2022-12-29T05:58:31;3.88;;;1.85;;
46765;SDS011;32527;51.986;5.842;2022-12-29T06:00:58;7.75;;;2.15;;
46765;SDS011;32527;51.986;5.842;2022-12-29T06:03:25;11.50;;;2.72;;
46765;SDS011;32527;51.986;5.842;2022-12-29T06:05:51;5.30;;;2.40;;
46765;SDS011;32527;51.986;5.842;2022-12-29T06:08:17;8.80;;;2.20;;
46765;SDS011;32527;51.986;5.842;2022-12-29T06:10:43;12.20;;;2.03;;
46765;SDS011;32527;51.986;5.842;2022-12-29T06:13:09;5.13;;;2.20;;
46765;SDS011;32527;51.986;5.842;2022-12-29T06:15:39;5.68;;;2.03;;
46765;SDS011;32527;51.986;5.842;2022-12-29T06:18:07;7.55;;;2.35;;
46765;SDS011;32527;51.986;5.842;2022-12-29T06:20:33;10.70;;;2.10;;
46765;SDS011;32527;51.986;5.842;2022-12-29T06:23:01;6.38;;;2.15;;
46765;SDS011;32527;51.986;5.842;2022-12-29T06:25:28;7.82;;;1.73;;
46765;SDS011;32527;51.986;5.842;2022-12-29T06:27:57;7.72;;;2.67;;
46765;SDS011;32527;51.986;5.842;2022-12-29T06:30:23;12.90;;;3.40;;
46765;SDS011;32527;51.986;5.842;2022-12-29T06:32:49;7.07;;;2.17;;
46765;SDS011;32527;51.986;5.842;2022-12-29T06:35:15;8.88;;;1.48;;
46765;SDS011;32527;51.986;5.842;2022-12-29T06:37:45;9.80;;;2.70;;
46765;SDS011;32527;51.986;5.842;2022-12-29T06:40:11;7.53;;;1.77;;
46765;SDS011;32527;51.986;5.842;2022-12-29T06:42:55;10.13;;;2.03;;
46765;SDS011;32527;51.986;5.842;2022-12-29T06:48:05;9.82;;;2.38;;
46765;SDS011;32527;51.986;5.842;2022-12-29T06:50:34;10.00;;;2.63;;
46765;SDS011;32527;51.986;5.842;2022-12-29T06:53:34;11.15;;;2.30;;
46765;SDS011;32527;51.986;5.842;2022-12-29T06:56:19;7.15;;;2.10;;
46765;SDS011;32527;51.986;5.842;2022-12-29T06:59:04;9.82;;;2.55;;
46765;SDS011;32527;51.986;5.842;2022-12-29T07:01:38;4.88;;;1.92;;
46765;SDS011;32527;51.986;5.842;2022-12-29T07:08:08;6.78;;;1.85;;
46765;SDS011;32527;51.986;5.842;2022-12-29T07:11:46;9.18;;;2.10;;
46765;SDS011;32527;51.986;5.842;2022-12-29T07:18:10;6.95;;;2.60;;
46765;SDS011;32527;51.986;5.842;2022-12-29T07:21:25;4.63;;;1.63;;
46765;SDS011;32527;51.986;5.842;2022-12-29T07:24:25;9.00;;;3.10;;
46765;SDS011;32527;51.986;5.842;2022-12-29T07:35:58;6.88;;;2.30;;
46765;SDS011;32527;51.986;5.842;2022-12-29T07:47:04;7.05;;;1.73;;
46765;SDS011;32527;51.986;5.842;2022-12-29T07:50:18;11.25;;;2.05;;
46765;SDS011;32527;51.986;5.842;2022-12-29T08:09:19;8.45;;;2.50;;
46765;SDS011;32527;51.986;5.842;2022-12-29T08:11:45;7.05;;;2.00;;
46765;SDS011;32527;51.986;5.842;2022-12-29T08:14:11;9.57;;;2.45;;
46765;SDS011;32527;51.986;5.842;2022-12-29T08:16:37;8.25;;;2.05;;
46765;SDS011;32527;51.986;5.842;2022-12-29T08:19:03;16.45;;;2.97;;
46765;SDS011;32527;51.986;5.842;2022-12-29T08:21:30;8.45;;;2.75;;
46765;SDS011;32527;51.986;5.842;2022-12-29T08:23:55;9.07;;;4.18;;
46765;SDS011;32527;51.986;5.842;2022-12-29T08:26:21;12.25;;;3.10;;
46765;SDS011;32527;51.986;5.842;2022-12-29T08:28:47;12.13;;;2.58;;
46765;SDS011;32527;51.986;5.842;2022-12-29T08:31:13;14.10;;;2.22;;
46765;SDS011;32527;51.986;5.842;2022-12-29T08:33:39;7.30;;;2.30;;
46765;SDS011;32527;51.986;5.842;2022-12-29T08:36:05;12.07;;;2.28;;
46765;SDS011;32527;51.986;5.842;2022-12-29T08:38:32;12.40;;;3.20;;
46765;SDS011;32527;51.986;5.842;2022-12-29T08:40:58;11.23;;;3.42;;
46765;SDS011;32527;51.986;5.842;2022-12-29T08:43:26;13.40;;;2.15;;
46765;SDS011;32527;51.986;5.842;2022-12-29T08:45:52;10.95;;;2.70;;
46765;SDS011;32527;51.986;5.842;2022-12-29T08:48:18;8.45;;;2.80;;
46765;SDS011;32527;51.986;5.842;2022-12-29T08:50:47;8.10;;;2.35;;
46765;SDS011;32527;51.986;5.842;2022-12-29T08:53:13;13.20;;;3.17;;
46765;SDS011;32527;51.986;5.842;2022-12-29T08:55:39;10.07;;;2.50;;
46765;SDS011;32527;51.986;5.842;2022-12-29T08:58:05;13.55;;;2.85;;
46765;SDS011;32527;51.986;5.842;2022-12-29T09:00:34;10.65;;;2.13;;
46765;SDS011;32527;51.986;5.842;2022-12-29T09:03:00;8.35;;;2.80;;
46765;SDS011;32527;51.986;5.842;2022-12-29T09:05:26;7.95;;;2.83;;
46765;SDS011;32527;51.986;5.842;2022-12-29T09:07:52;9.88;;;2.17;;
46765;SDS011;32527;51.986;5.842;2022-12-29T09:10:18;7.07;;;2.20;;
46765;SDS011;32527;51.986;5.842;2022-12-29T09:12:44;15.75;;;2.92;;
46765;SDS011;32527;51.986;5.842;2022-12-29T09:15:10;12.32;;;3.08;;
46765;SDS011;32527;51.986;5.842;2022-12-29T09:17:37;12.82;;;2.70;;
46765;SDS011;32527;51.986;5.842;2022-12-29T09:20:11;16.73;;;3.05;;
46765;SDS011;32527;51.986;5.842;2022-12-29T09:22:37;12.65;;;2.72;;
46765;SDS011;32527;51.986;5.842;2022-12-29T09:25:03;9.48;;;2.38;;
46765;SDS011;32527;51.986;5.842;2022-12-29T09:27:30;7.57;;;2.38;;
46765;SDS011;32527;51.986;5.842;2022-12-29T09:29:56;12.20;;;2.55;;
46765;SDS011;32527;51.986;5.842;2022-12-29T09:32:22;10.65;;;2.10;;
46765;SDS011;32527;51.986;5.842;2022-12-29T09:34:48;7.45;;;2.80;;
46765;SDS011;32527;51.986;5.842;2022-12-29T09:37:14;11.70;;;2.72;;
46765;SDS011;32527;51.986;5.842;2022-12-29T09:39:39;9.80;;;2.85;;
46765;SDS011;32527;51.986;5.842;2022-12-29T09:42:13;8.35;;;2.42;;
46765;SDS011;32527;51.986;5.842;2022-12-29T09:47:37;11.50;;;3.08;;
46765;SDS011;32527;51.986;5.842;2022-12-29T09:52:50;12.65;;;2.33;;
46765;SDS011;32527;51.986;5.842;2022-12-29T09:58:05;11.68;;;2.10;;
46765;SDS011;32527;51.986;5.842;2022-12-29T10:00:50;12.60;;;2.47;;
46765;SDS011;32527;51.986;5.842;2022-12-29T10:03:22;22.63;;;3.00;;
46765;SDS011;32527;51.986;5.842;2022-12-29T10:22:18;11.25;;;2.92;;
46765;SDS011;32527;51.986;5.842;2022-12-29T10:24:49;10.00;;;3.63;;
46765;SDS011;32527;51.986;5.842;2022-12-29T10:27:18;11.57;;;2.22;;
46765;SDS011;32527;51.986;5.842;2022-12-29T10:29:52;6.47;;;2.05;;
46765;SDS011;32527;51.986;5.842;2022-12-29T10:35:00;6.88;;;2.28;;
46765;SDS011;32527;51.986;5.842;2022-12-29T10:37:49;13.25;;;3.35;;
46765;SDS011;32527;51.986;5.842;2022-12-29T10:43:34;11.65;;;3.08;;
46765;SDS011;32527;51.986;5.842;2022-12-29T10:46:09;8.98;;;3.00;;
46765;SDS011;32527;51.986;5.842;2022-12-29T10:48:39;10.63;;;2.50;;
46765;SDS011;32527;51.986;5.842;2022-12-29T10:51:05;9.02;;;2.90;;
46765;SDS011;32527;51.986;5.842;2022-12-29T10:53:46;10.35;;;2.60;;
46765;SDS011;32527;51.986;5.842;2022-12-29T10:56:31;12.57;;;2.60;;
46765;SDS011;32527;51.986;5.842;2022-12-29T10:58:59;9.23;;;2.42;;
46765;SDS011;32527;51.986;5.842;2022-12-29T11:01:39;5.32;;;2.15;;
46765;SDS011;32527;51.986;5.842;2022-12-29T11:07:16;7.28;;;2.75;;
46765;SDS011;32527;51.986;5.842;2022-12-29T11:09:44;13.82;;;3.30;;
46765;SDS011;32527;51.986;5.842;2022-12-29T11:12:27;22.83;;;7.72;;
46765;SDS011;32527;51.986;5.842;2022-12-29T11:15:13;10.55;;;5.28;;
46765;SDS011;32527;51.986;5.842;2022-12-29T11:17:48;15.95;;;3.60;;
46765;SDS011;32527;51.986;5.842;2022-12-29T11:22:53;15.50;;;3.65;;
46765;SDS011;32527;51.986;5.842;2022-12-29T11:25:19;12.48;;;4.00;;
46765;SDS011;32527;51.986;5.842;2022-12-29T11:27:59;19.92;;;4.50;;
46765;SDS011;32527;51.986;5.842;2022-12-29T11:30:30;10.77;;;4.03;;
46765;SDS011;32527;51.986;5.842;2022-12-29T11:32:57;11.98;;;4.22;;
46765;SDS011;32527;51.986;5.842;2022-12-29T11:35:37;17.30;;;4.97;;
46765;SDS011;32527;51.986;5.842;2022-12-29T11:38:06;14.15;;;4.13;;
46765;SDS011;32527;51.986;5.842;2022-12-29T11:40:57;13.32;;;4.40;;
46765;SDS011;32527;51.986;5.842;2022-12-29T11:43:29;20.60;;;4.72;;
46765;SDS011;32527;51.986;5.842;2022-12-29T11:45:58;19.25;;;5.15;;
46765;SDS011;32527;51.986;5.842;2022-12-29T11:48:28;14.23;;;4.82;;
46765;SDS011;32527;51.986;5.842;2022-12-29T11:50:58;12.63;;;4.20;;
46765;SDS011;32527;51.986;5.842;2022-12-29T11:56:03;24.90;;;4.65;;
46765;SDS011;32527;51.986;5.842;2022-12-29T11:58:36;10.95;;;4.00;;
46765;SDS011;32527;51.986;5.842;2022-12-29T12:03:30;19.38;;;6.35;;
46765;SDS011;32527;51.986;5.842;2022-12-29T12:06:01;15.95;;;4.55;;
46765;SDS011;32527;51.986;5.842;2022-12-29T12:08:42;13.07;;;4.07;;
46765;SDS011;32527;51.986;5.842;2022-12-29T12:11:21;13.55;;;4.40;;
46765;SDS011;32527;51.986;5.842;2022-12-29T12:14:11;17.52;;;4.25;;
46765;SDS011;32527;51.986;5.842;2022-12-29T12:17:19;13.82;;;4.75;;
46765;SDS011;32527;51.986;5.842;2022-12-29T12:25:38;15.57;;;5.22;;
46765;SDS011;32527;51.986;5.842;2022-12-29T12:28:13;15.68;;;3.97;;
46765;SDS011;32527;51.986;5.842;2022-12-29T12:30:45;12.15;;;4.28;;
46765;SDS011;32527;51.986;5.842;2022-12-29T12:38:44;14.63;;;4.57;;
46765;SDS011;32527;51.986;5.842;2022-12-29T12:41:23;16.42;;;4.78;;
46765;SDS011;32527;51.986;5.842;2022-12-29T12:44:10;20.27;;;4.82;;
46765;SDS011;32527;51.986;5.842;2022-12-29T12:54:58;19.73;;;4.60;;
46765;SDS011;32527;51.986;5.842;2022-12-29T13:00:03;13.70;;;5.38;;
46765;SDS011;32527;51.986;5.842;2022-12-29T13:22:21;13.27;;;4.38;;
46765;SDS011;32527;51.986;5.842;2022-12-29T13:28:06;12.70;;;4.00;;
46765;SDS011;32527;51.986;5.842;2022-12-29T13:33:35;20.23;;;5.25;;
46765;SDS011;32527;51.986;5.842;2022-12-29T13:36:18;11.90;;;4.00;;
46765;SDS011;32527;51.986;5.842;2022-12-29T13:39:34;13.00;;;4.53;;
46765;SDS011;32527;51.986;5.842;2022-12-29T13:42:00;15.52;;;4.63;;
46765;SDS011;32527;51.986;5.842;2022-12-29T13:44:34;17.02;;;4.07;;
46765;SDS011;32527;51.986;5.842;2022-12-29T13:49:56;17.67;;;4.53;;
46765;SDS011;32527;51.986;5.842;2022-12-29T13:52:29;19.10;;;5.43;;
46765;SDS011;32527;51.986;5.842;2022-12-29T14:01:33;8.85;;;3.47;;
46765;SDS011;32527;51.986;5.842;2022-12-29T14:04:12;13.52;;;5.13;;
46765;SDS011;32527;51.986;5.842;2022-12-29T14:06:39;13.55;;;3.50;;
46765;SDS011;32527;51.986;5.842;2022-12-29T14:12:17;7.88;;;3.63;;
46765;SDS011;32527;51.986;5.842;2022-12-29T14:14:47;21.67;;;3.55;;
46765;SDS011;32527;51.986;5.842;2022-12-29T14:17:16;14.95;;;3.63;;
46765;SDS011;32527;51.986;5.842;2022-12-29T14:19:45;9.90;;;3.30;;
46765;SDS011;32527;51.986;5.842;2022-12-29T14:22:16;12.10;;;3.63;;
46765;SDS011;32527;51.986;5.842;2022-12-29T14:24:49;12.13;;;3.08;;
46765;SDS011;32527;51.986;5.842;2022-12-29T14:29:43;5.63;;;2.53;;
46765;SDS011;32527;51.986;5.842;2022-12-29T14:34:45;7.57;;;2.35;;
46765;SDS011;32527;51.986;5.842;2022-12-29T14:42:50;9.85;;;2.72;;
46765;SDS011;32527;51.986;5.842;2022-12-29T14:47:47;8.55;;;2.85;;
46765;SDS011;32527;51.986;5.842;2022-12-29T14:53:32;6.63;;;2.63;;
46765;SDS011;32527;51.986;5.842;2022-12-29T14:56:10;10.13;;;2.85;;
46765;SDS011;32527;51.986;5.842;2022-12-29T14:58:44;7.25;;;3.33;;
46765;SDS011;32527;51.986;5.842;2022-12-29T15:04:19;9.35;;;3.00;;
46765;SDS011;32527;51.986;5.842;2022-12-29T15:06:48;8.82;;;3.35;;
46765;SDS011;32527;51.986;5.842;2022-12-29T15:12:26;7.65;;;3.00;;
46765;SDS011;32527;51.986;5.842;2022-12-29T15:15:13;9.75;;;3.58;;
46765;SDS011;32527;51.986;5.842;2022-12-29T15:17:50;9.13;;;3.40;;
46765;SDS011;32527;51.986;5.842;2022-12-29T15:20:26;7.20;;;3.38;;
46765;SDS011;32527;51.986;5.842;2022-12-29T15:22:54;8.57;;;3.05;;
46765;SDS011;32527;51.986;5.842;2022-12-29T15:25:22;9.45;;;3.25;;
46765;SDS011;32527;51.986;5.842;2022-12-29T15:27:50;13.60;;;3.92;;
46765;SDS011;32527;51.986;5.842;2022-12-29T15:30:25;7.57;;;3.22;;
46765;SDS011;32527;51.986;5.842;2022-12-29T15:32:51;19.58;;;8.10;;
46765;SDS011;32527;51.986;5.842;2022-12-29T15:35:25;13.25;;;4.20;;
46765;SDS011;32527;51.986;5.842;2022-12-29T15:37:57;12.27;;;4.43;;
46765;SDS011;32527;51.986;5.842;2022-12-29T15:40:28;13.73;;;3.80;;
46765;SDS011;32527;51.986;5.842;2022-12-29T15:45:47;16.67;;;4.35;;
46765;SDS011;32527;51.986;5.842;2022-12-29T15:48:19;16.40;;;4.22;;
46765;SDS011;32527;51.986;5.842;2022-12-29T15:50:48;13.70;;;4.47;;
46765;SDS011;32527;51.986;5.842;2022-12-29T15:53:24;11.48;;;4.28;;
46765;SDS011;32527;51.986;5.842;2022-12-29T15:55:55;10.05;;;3.53;;
46765;SDS011;32527;51.986;5.842;2022-12-29T15:58:25;14.65;;;4.43;;
46765;SDS011;32527;51.986;5.842;2022-12-29T16:00:55;19.83;;;3.85;;
46765;SDS011;32527;51.986;5.842;2022-12-29T16:03:24;12.75;;;3.97;;
46765;SDS011;32527;51.986;5.842;2022-12-29T16:05:53;13.88;;;3.75;;
46765;SDS011;32527;51.986;5.842;2022-12-29T16:08:23;13.77;;;4.45;;
46765;SDS011;32527;51.986;5.842;2022-12-29T16:11:03;10.35;;;3.65;;
46765;SDS011;32527;51.986;5.842;2022-12-29T16:13:40;13.30;;;4.65;;
46765;SDS011;32527;51.986;5.842;2022-12-29T16:16:27;7.28;;;3.03;;
46765;SDS011;32527;51.986;5.842;2022-12-29T16:18:54;15.52;;;3.58;;
46765;SDS011;32527;51.986;5.842;2022-12-29T16:21:31;6.40;;;3.40;;
46765;SDS011;32527;51.986;5.842;2022-12-29T16:24:00;10.80;;;3.65;;
46765;SDS011;32527;51.986;5.842;2022-12-29T16:26:30;8.82;;;3.30;;
46765;SDS011;32527;51.986;5.842;2022-12-29T16:28:57;7.97;;;3.38;;
46765;SDS011;32527;51.986;5.842;2022-12-29T16:33:54;7.32;;;4.10;;
46765;SDS011;32527;51.986;5.842;2022-12-29T16:41:48;10.68;;;3.25;;
46765;SDS011;32527;51.986;5.842;2022-12-29T16:44:22;11.73;;;3.38;;
46765;SDS011;32527;51.986;5.842;2022-12-29T16:49:35;10.73;;;3.35;;
46765;SDS011;32527;51.986;5.842;2022-12-29T16:52:13;13.32;;;3.70;;
46765;SDS011;32527;51.986;5.842;2022-12-29T16:54:52;17.48;;;4.75;;
46765;SDS011;32527;51.986;5.842;2022-12-29T16:57:28;13.70;;;3.03;;
46765;SDS011;32527;51.986;5.842;2022-12-29T16:59:57;10.93;;;3.03;;
46765;SDS011;32527;51.986;5.842;2022-12-29T17:02:25;8.30;;;2.65;;
46765;SDS011;32527;51.986;5.842;2022-12-29T17:04:54;9.05;;;2.95;;
46765;SDS011;32527;51.986;5.842;2022-12-29T17:07:21;5.63;;;2.17;;
46765;SDS011;32527;51.986;5.842;2022-12-29T17:09:49;12.48;;;3.30;;
46765;SDS011;32527;51.986;5.842;2022-12-29T17:12:18;8.40;;;3.42;;
46765;SDS011;32527;51.986;5.842;2022-12-29T17:17:35;9.30;;;2.88;;
46765;SDS011;32527;51.986;5.842;2022-12-29T17:20:09;7.85;;;2.72;;
46765;SDS011;32527;51.986;5.842;2022-12-29T17:22:42;6.93;;;2.28;;
46765;SDS011;32527;51.986;5.842;2022-12-29T17:25:13;9.55;;;2.33;;
46765;SDS011;32527;51.986;5.842;2022-12-29T17:27:41;10.63;;;2.60;;
46765;SDS011;32527;51.986;5.842;2022-12-29T17:30:19;15.07;;;2.70;;
46765;SDS011;32527;51.986;5.842;2022-12-29T17:32:53;10.30;;;3.30;;
46765;SDS011;32527;51.986;5.842;2022-12-29T17:35:21;10.57;;;2.78;;
46765;SDS011;32527;51.986;5.842;2022-12-29T17:37:47;10.02;;;2.97;;
46765;SDS011;32527;51.986;5.842;2022-12-29T17:40:15;14.25;;;3.65;;
46765;SDS011;32527;51.986;5.842;2022-12-29T17:42:44;10.43;;;2.88;;
46765;SDS011;32527;51.986;5.842;2022-12-29T17:45:15;9.70;;;4.32;;
46765;SDS011;32527;51.986;5.842;2022-12-29T17:47:45;12.23;;;3.03;;
46765;SDS011;32527;51.986;5.842;2022-12-29T17:50:13;8.55;;;2.35;;
46765;SDS011;32527;51.986;5.842;2022-12-29T17:52:41;10.23;;;2.83;;
46765;SDS011;32527;51.986;5.842;2022-12-29T17:55:15;8.35;;;4.72;;
46765;SDS011;32527;51.986;5.842;2022-12-29T17:57:43;7.80;;;2.60;;
46765;SDS011;32527;51.986;5.842;2022-12-29T18:00:13;14.23;;;3.40;;
46765;SDS011;32527;51.986;5.842;2022-12-29T18:02:39;9.02;;;2.83;;
46765;SDS011;32527;51.986;5.842;2022-12-29T18:05:08;9.43;;;3.25;;
46765;SDS011;32527;51.986;5.842;2022-12-29T18:07:43;13.18;;;3.03;;
46765;SDS011;32527;51.986;5.842;2022-12-29T18:10:08;7.93;;;3.05;;
46765;SDS011;32527;51.986;5.842;2022-12-29T18:12:38;8.57;;;3.58;;
46765;SDS011;32527;51.986;5.842;2022-12-29T18:15:06;16.92;;;3.50;;
46765;SDS011;32527;51.986;5.842;2022-12-29T18:17:41;7.45;;;3.30;;
46765;SDS011;32527;51.986;5.842;2022-12-29T18:20:07;10.00;;;3.33;;
46765;SDS011;32527;51.986;5.842;2022-12-29T18:22:33;11.15;;;3.88;;
46765;SDS011;32527;51.986;5.842;2022-12-29T18:24:59;9.25;;;2.78;;
46765;SDS011;32527;51.986;5.842;2022-12-29T18:27:26;8.35;;;3.15;;
46765;SDS011;32527;51.986;5.842;2022-12-29T18:29:52;11.48;;;2.55;;
46765;SDS011;32527;51.986;5.842;2022-12-29T18:32:18;8.55;;;2.80;;
46765;SDS011;32527;51.986;5.842;2022-12-29T18:34:45;10.15;;;3.35;;
46765;SDS011;32527;51.986;5.842;2022-12-29T18:37:12;16.17;;;3.30;;
46765;SDS011;32527;51.986;5.842;2022-12-29T18:39:38;9.68;;;3.28;;
46765;SDS011;32527;51.986;5.842;2022-12-29T18:42:05;11.35;;;2.90;;
46765;SDS011;32527;51.986;5.842;2022-12-29T18:44:31;10.98;;;3.60;;
46765;SDS011;32527;51.986;5.842;2022-12-29T18:46:57;14.40;;;3.78;;
46765;SDS011;32527;51.986;5.842;2022-12-29T18:49:23;11.30;;;3.08;;
46765;SDS011;32527;51.986;5.842;2022-12-29T18:51:49;14.00;;;3.60;;
46765;SDS011;32527;51.986;5.842;2022-12-29T18:54:23;18.55;;;4.00;;
46765;SDS011;32527;51.986;5.842;2022-12-29T18:56:54;13.70;;;4.07;;